MDT,Max TemperatureF,Mean TemperatureF,Min TemperatureF,Max Dew PointF,MeanDew PointF,Min DewpointF,Max Humidity, Mean Humidity, Min Humidity, Max Sea Level PressureIn, Mean Sea Level PressureIn, Min Sea Level PressureIn, Max VisibilityMiles, Mean VisibilityMiles, Min VisibilityMiles, Max Wind SpeedMPH, Mean Wind SpeedMPH, Max Gust SpeedMPH,PrecipitationIn, CloudCover, Events, WindDirDegrees
2013-7-1,87,72,57,59,56,52,82,53,35,30.25,30.21,30.16,10,10,9,13,7,16,0.00,0,,127
2013-7-2,87,72,57,55,53,50,82,50,29,30.19,30.12,30.02,10,10,10,15,5,17,0.00,0,,94
2013-7-3,95,77,59,70,55,48,73,47,26,30.01,29.87,29.74,10,10,10,18,7,24,0.00,0,,182
2013-7-4,84,74,64,66,59,54,94,62,35,29.92,29.86,29.81,10,10,9,21,10,25,0.00,0,,13
2013-7-5,89,76,64,63,59,55,88,64,36,29.84,29.78,29.71,10,10,3,24,8,29,0.00,1,Thunderstorm,99
2013-7-6,80,70,59,63,55,50,100,64,36,29.97,29.85,29.77,10,9,0,18,7,25,0.00,1,,316
2013-7-7,78,68,59,63,57,52,94,67,44,30.00,29.96,29.90,10,10,6,15,7,24,0.08,2,Thunderstorm,113
2013-7-8,87,73,59,63,58,54,94,67,35,30.06,29.94,29.86,10,10,1,34,9,61,1.32,2,Thunderstorm,131
2013-7-9,73,64,55,59,56,54,94,72,53,30.18,30.10,29.97,10,10,10,18,9,25,0.00,1,,323
2013-7-10,84,68,51,64,58,48,94,69,42,30.17,30.08,29.91,10,9,0,13,3,,0.00,0,,102
2013-7-11,100,80,60,66,62,54,88,59,23,29.92,29.82,29.67,10,10,5,26,8,41,0.00,0,Thunderstorm,168
2013-7-12,87,76,62,64,54,43,73,47,23,29.89,29.81,29.71,10,10,8,14,9,23,0.00,1,,297
2013-7-13,93,76,59,64,57,48,82,59,34,30.15,29.95,29.90,10,10,5,40,10,48,0.00,0,,19
2013-7-14,73,64,55,55,51,46,88,66,50,30.23,30.19,30.15,10,10,10,17,11,21,0.00,1,,68
2013-7-15,89,76,62,70,64,55,88,67,46,30.17,30.09,30.01,10,10,10,21,9,28,0.00,2,,143
2013-7-16,75,68,62,64,55,50,83,63,47,30.22,30.07,29.91,10,10,10,26,13,36,0.00,1,,20
2013-7-17,80,70,60,66,60,54,88,72,58,30.19,30.17,30.12,10,10,10,16,10,21,0.00,4,,57
2013-7-18,87,74,60,64,55,45,88,55,24,30.05,29.98,29.91,10,10,8,22,10,91,0.02,0,,315
2013-7-19,87,70,53,59,52,46,88,54,25,30.07,30.01,29.92,10,10,8,16,6,,0.01,0,,309
2013-7-20,80,68,57,61,56,54,88,66,45,30.02,29.96,29.89,10,10,5,17,10,24,0.00,1,Thunderstorm,73
2013-7-21,93,74,55,64,56,48,94,59,23,29.90,29.80,29.71,10,10,10,24,9,31,0.00,0,,240
2013-7-22,80,66,53,55,53,48,88,61,39,29.98,29.92,29.89,10,10,10,16,9,22,0.00,0,,46
2013-7-23,80,68,55,57,55,52,88,63,42,30.12,30.05,29.94,10,10,10,21,8,24,0.00,1,Thunderstorm,36
2013-7-24,84,68,51,59,53,48,94,61,29,30.14,30.09,29.98,10,10,1,24,5,59,1.06,1,Thunderstorm,74
2013-7-25,71,62,53,57,51,43,88,63,40,30.27,30.16,30.02,10,10,10,18,11,24,0.00,2,,360
2013-7-26,69,58,46,48,45,43,93,65,40,30.35,30.28,30.21,10,10,0,15,8,20,0.00,2,,81
2013-7-27,77,62,48,48,44,39,76,49,36,30.24,30.09,29.96,10,10,10,20,12,24,0.00,0,,115
2013-7-28,78,64,51,63,49,39,83,58,44,29.99,29.92,29.85,10,10,9,18,9,17,0.03,1,Thunderstorm,126
2013-7-29,75,65,55,57,54,52,94,68,44,30.08,29.97,29.87,10,10,9,28,7,34,0.03,1,Thunderstorm,337
2013-7-30,75,65,55,57,54,52,88,68,47,30.20,30.13,30.07,10,10,5,15,7,,0.05,2,,15
2013-7-31,80,65,50,55,49,45,87,54,34,30.23,30.18,30.11,10,10,10,14,7,21,0.00,0,,337